createdAt,value
2023-04-24T00:01:18.950Z,0.77
2023-04-24T00:03:49.686Z,0.80
2023-04-24T00:06:21.303Z,0.90
2023-04-24T00:09:11.802Z,0.93
2023-04-24T00:11:41.922Z,1.03
2023-04-24T00:14:23.951Z,0.40
2023-04-24T00:16:53.588Z,0.70
2023-04-24T00:19:23.756Z,0.70
2023-04-24T00:22:12.380Z,1.10
2023-04-24T00:24:42.985Z,0.90
2023-04-24T00:27:12.903Z,0.87
2023-04-24T00:29:50.169Z,0.60
2023-04-24T00:32:19.402Z,0.90
2023-04-24T00:34:49.810Z,0.70
2023-04-24T00:37:20.055Z,0.90
2023-04-24T00:39:49.308Z,1.60
2023-04-24T00:42:18.530Z,0.87
2023-04-24T00:44:49.573Z,1.67
2023-04-24T00:47:18.662Z,1.07
2023-04-24T00:49:47.852Z,1.10
2023-04-24T00:52:19.302Z,1.23
2023-04-24T00:54:48.262Z,1.30
2023-04-24T00:57:19.170Z,1.40
2023-04-24T00:59:53.466Z,1.60
2023-04-24T01:02:24.856Z,1.83
2023-04-24T01:04:54.545Z,1.70
2023-04-24T01:07:23.858Z,0.90
2023-04-24T01:09:53.333Z,1.53
2023-04-24T01:12:22.573Z,1.00
2023-04-24T01:14:53.063Z,1.43
2023-04-24T01:17:26.730Z,1.47
2023-04-24T01:19:58.068Z,1.43
2023-04-24T01:22:30.520Z,1.87
2023-04-24T01:25:02.567Z,1.10
2023-04-24T01:27:31.866Z,2.13
2023-04-24T01:30:00.918Z,2.50
2023-04-24T01:32:30.318Z,1.83
2023-04-24T01:34:59.342Z,1.50
2023-04-24T01:37:30.285Z,2.10
2023-04-24T01:39:59.077Z,2.30
2023-04-24T01:42:27.967Z,2.07
2023-04-24T01:44:57.306Z,0.97
2023-04-24T01:47:27.341Z,1.27
2023-04-24T01:49:56.493Z,2.33
2023-04-24T01:52:26.022Z,2.47
2023-04-24T01:54:59.036Z,2.07
2023-04-24T01:57:29.343Z,2.17
2023-04-24T01:59:58.349Z,3.00
2023-04-24T02:02:31.529Z,2.80
2023-04-24T02:05:00.578Z,1.80
2023-04-24T02:07:29.566Z,2.50
2023-04-24T02:10:00.303Z,2.77
2023-04-24T02:12:29.147Z,2.33
2023-04-24T02:14:58.556Z,3.70
2023-04-24T02:17:28.858Z,2.57
2023-04-24T02:19:57.664Z,2.50
2023-04-24T02:22:26.691Z,3.20
2023-04-24T02:24:55.584Z,2.53
2023-04-24T02:27:28.168Z,2.33
2023-04-24T02:29:57.238Z,2.23
2023-04-24T02:32:28.243Z,2.20
2023-04-24T02:34:57.471Z,3.07
2023-04-24T02:37:26.421Z,1.97
2023-04-24T02:39:55.491Z,3.20
2023-04-24T02:42:32.192Z,4.80
2023-04-24T02:45:03.905Z,3.80
2023-04-24T02:47:33.397Z,3.63
2023-04-24T02:50:04.098Z,2.70
2023-04-24T02:52:33.372Z,4.30
2023-04-24T02:55:02.672Z,3.60
2023-04-24T02:57:36.527Z,4.00
2023-04-24T03:00:09.663Z,2.40
2023-04-24T03:02:41.097Z,3.50
2023-04-24T03:05:13.118Z,4.90
2023-04-24T03:07:44.473Z,4.30
2023-04-24T03:10:13.357Z,4.33
2023-04-24T03:12:44.078Z,3.43
2023-04-24T03:15:14.309Z,4.00
2023-04-24T03:17:43.603Z,4.83
2023-04-24T03:20:26.580Z,4.53
2023-04-24T03:22:58.940Z,2.90
2023-04-24T03:25:28.575Z,4.87
2023-04-24T03:27:59.633Z,3.30
2023-04-24T03:30:28.980Z,4.77
2023-04-24T03:32:58.262Z,5.27
2023-04-24T03:35:27.557Z,4.03
2023-04-24T03:37:56.446Z,4.47
2023-04-24T03:40:25.990Z,3.73
2023-04-24T03:42:54.941Z,4.77
2023-04-24T03:45:25.696Z,4.27
2023-04-24T03:47:54.418Z,4.37
2023-04-24T03:50:24.630Z,5.97
2023-04-24T03:52:53.443Z,4.57
2023-04-24T03:55:22.309Z,5.80
2023-04-24T03:57:52.164Z,5.03
2023-04-24T04:00:22.515Z,3.90
2023-04-24T04:02:53.185Z,4.93
2023-04-24T04:05:22.280Z,4.07
2023-04-24T04:07:52.946Z,4.30
2023-04-24T04:10:22.329Z,2.67
2023-04-24T04:12:51.515Z,5.40
2023-04-24T04:15:21.141Z,4.30
2023-04-24T04:18:07.246Z,3.70
2023-04-24T04:20:36.155Z,3.10
2023-04-24T04:23:05.317Z,3.93
2023-04-24T04:25:34.185Z,3.53
2023-04-24T04:28:05.265Z,5.57
2023-04-24T04:30:35.183Z,5.10
2023-04-24T04:33:05.817Z,5.07
2023-04-24T04:35:36.420Z,4.00
2023-04-24T04:38:06.014Z,4.93
2023-04-24T04:40:35.096Z,5.47
2023-04-24T04:43:03.940Z,3.87
2023-04-24T04:45:36.312Z,6.97
2023-04-24T04:48:08.592Z,3.90
2023-04-24T04:50:37.578Z,3.70
2023-04-24T04:53:07.926Z,4.43
2023-04-24T04:55:36.984Z,3.30
2023-04-24T04:58:06.433Z,3.60
2023-04-24T05:00:36.976Z,5.90
2023-04-24T05:03:19.798Z,3.37
2023-04-24T05:05:49.650Z,3.67
2023-04-24T05:08:26.441Z,2.97
2023-04-24T05:10:56.144Z,3.93
2023-04-24T05:13:38.186Z,3.53
2023-04-24T05:16:12.860Z,2.53
2023-04-24T05:18:45.116Z,3.30
2023-04-24T05:21:14.555Z,2.30
2023-04-24T05:23:44.339Z,2.73
2023-04-24T05:26:13.219Z,4.10
2023-04-24T05:28:42.264Z,3.00
2023-04-24T05:31:11.487Z,3.00
2023-04-24T05:33:40.447Z,2.60
2023-04-24T05:36:11.003Z,3.37
2023-04-24T05:38:39.728Z,3.13
2023-04-24T05:41:08.939Z,2.47
2023-04-24T05:43:37.829Z,3.65
2023-04-24T05:46:06.591Z,3.00
2023-04-24T05:48:35.867Z,2.60
2023-04-24T05:51:04.719Z,3.77
2023-04-24T05:53:35.061Z,3.30
2023-04-24T05:56:04.237Z,3.13
2023-04-24T05:58:33.137Z,2.13
2023-04-24T06:01:02.916Z,3.23
2023-04-24T06:03:32.177Z,4.23
2023-04-24T06:06:00.996Z,3.87
2023-04-24T06:08:29.736Z,4.33
2023-04-24T06:11:01.765Z,2.60
2023-04-24T06:13:31.820Z,4.50
2023-04-24T06:16:00.638Z,3.67
2023-04-24T06:18:29.595Z,5.00
2023-04-24T06:20:58.368Z,3.33
2023-04-24T06:23:27.836Z,2.80
2023-04-24T06:25:56.939Z,2.23
2023-04-24T06:28:27.589Z,5.80
2023-04-24T06:30:57.030Z,3.50
2023-04-24T06:33:26.328Z,2.70
2023-04-24T06:35:55.296Z,3.63
2023-04-24T06:38:24.823Z,3.60
2023-04-24T06:40:54.043Z,2.77
2023-04-24T06:43:23.038Z,4.33
2023-04-24T06:45:53.306Z,2.20
2023-04-24T06:48:22.207Z,2.30
2023-04-24T06:50:51.193Z,2.67
2023-04-24T06:53:22.578Z,2.17
2023-04-24T06:55:51.815Z,2.40
2023-04-24T06:58:21.155Z,2.30
2023-04-24T07:00:49.923Z,2.73
2023-04-24T07:03:25.817Z,1.80
2023-04-24T07:05:54.915Z,2.37
2023-04-24T07:08:25.449Z,2.20
2023-04-24T07:10:54.650Z,2.30
2023-04-24T07:13:23.722Z,1.50
2023-04-24T07:15:56.413Z,1.90
2023-04-24T07:18:27.527Z,1.43
2023-04-24T07:20:59.373Z,1.60
2023-04-24T07:23:35.867Z,0.70
2023-04-24T07:26:06.608Z,0.90
2023-04-24T07:28:38.592Z,1.23
2023-04-24T07:31:07.825Z,1.07
2023-04-24T07:33:38.568Z,1.10
2023-04-24T07:36:07.926Z,1.40
2023-04-24T07:38:37.584Z,0.60
2023-04-24T07:41:06.922Z,0.40
2023-04-24T07:43:38.623Z,0.80
2023-04-24T07:46:17.267Z,0.87
2023-04-24T07:48:58.575Z,0.83
2023-04-24T07:51:31.923Z,0.80
2023-04-24T07:54:01.357Z,0.77
2023-04-24T07:56:32.685Z,1.80
2023-04-24T07:59:02.673Z,0.90
2023-04-24T08:01:31.812Z,0.77
2023-04-24T08:04:02.332Z,1.00
2023-04-24T08:06:34.763Z,0.90
2023-04-24T08:09:03.706Z,0.67
2023-04-24T08:11:33.168Z,0.70
2023-04-24T08:14:03.794Z,1.30
2023-04-24T08:16:32.842Z,0.90
2023-04-24T08:19:03.868Z,0.60
2023-04-24T08:21:32.981Z,0.80
2023-04-24T08:24:06.438Z,1.13
2023-04-24T08:26:36.175Z,0.90
2023-04-24T08:29:05.492Z,1.43
2023-04-24T08:31:34.852Z,1.40
2023-04-24T08:34:05.910Z,1.83
2023-04-24T08:36:45.822Z,1.30
2023-04-24T08:39:15.821Z,1.20
2023-04-24T08:41:46.663Z,3.00
2023-04-24T08:44:17.774Z,0.70
2023-04-24T08:46:48.876Z,1.23
2023-04-24T08:49:20.987Z,1.60
2023-04-24T08:51:51.138Z,2.33
2023-04-24T08:54:21.206Z,1.40
2023-04-24T08:56:52.847Z,1.00
2023-04-24T08:59:21.983Z,1.60
2023-04-24T09:01:52.382Z,1.77
2023-04-24T09:04:25.995Z,0.97
2023-04-24T09:06:55.545Z,1.13
2023-04-24T09:09:26.309Z,1.93
2023-04-24T09:11:57.095Z,2.57
2023-04-24T09:14:26.626Z,1.80
2023-04-24T09:16:57.473Z,2.93
2023-04-24T09:19:30.986Z,2.23
2023-04-24T09:22:00.331Z,3.00
2023-04-24T09:24:30.006Z,2.40
2023-04-24T09:27:05.398Z,2.73
2023-04-24T09:29:35.172Z,3.20
2023-04-24T09:32:23.012Z,2.30
2023-04-24T09:35:09.396Z,2.73
2023-04-24T09:37:39.576Z,3.37
2023-04-24T09:40:22.604Z,3.17
2023-04-24T09:43:02.279Z,2.77
2023-04-24T09:45:31.701Z,4.40
2023-04-24T09:48:06.411Z,2.50
2023-04-24T09:50:38.122Z,2.67
2023-04-24T09:53:10.085Z,2.90
2023-04-24T09:55:43.395Z,3.13
2023-04-24T09:58:12.720Z,3.30
2023-04-24T10:00:42.858Z,3.60
2023-04-24T10:03:12.988Z,3.13
2023-04-24T10:05:45.267Z,3.30
2023-04-24T10:08:16.564Z,3.03
2023-04-24T10:10:46.529Z,2.57
2023-04-24T10:13:18.172Z,3.40
2023-04-24T10:15:48.139Z,2.97
2023-04-24T10:18:21.806Z,3.50
2023-04-24T10:21:10.555Z,2.70
2023-04-24T10:23:41.452Z,3.80
2023-04-24T10:26:18.498Z,2.40
2023-04-24T10:28:49.076Z,3.30
2023-04-24T10:31:19.718Z,2.70
2023-04-24T10:33:51.210Z,2.00
2023-04-24T10:36:22.322Z,3.07
2023-04-24T10:38:51.818Z,2.10
2023-04-24T10:41:24.850Z,2.20
2023-04-24T10:44:07.815Z,2.47
2023-04-24T10:46:38.488Z,2.10
2023-04-24T10:49:10.778Z,1.63
2023-04-24T10:51:52.183Z,2.57
2023-04-24T10:54:27.614Z,1.20
2023-04-24T10:56:58.277Z,1.47
2023-04-24T10:59:28.029Z,2.10
2023-04-24T11:01:58.213Z,2.27
2023-04-24T11:04:33.993Z,3.13
2023-04-24T11:07:06.095Z,2.23
2023-04-24T11:09:37.686Z,2.17
2023-04-24T11:12:09.098Z,2.47
2023-04-24T11:14:59.845Z,3.03
2023-04-24T11:17:35.926Z,3.30
2023-04-24T11:20:22.923Z,2.40
2023-04-24T11:22:59.078Z,2.10
2023-04-24T11:25:28.049Z,1.73
2023-04-24T11:28:07.379Z,1.50
2023-04-24T11:30:38.259Z,1.60
2023-04-24T11:33:09.769Z,1.93
2023-04-24T11:35:44.172Z,1.67
2023-04-24T11:40:50.978Z,2.07
2023-04-24T11:43:21.444Z,2.53
2023-04-24T11:45:52.262Z,1.80
2023-04-24T11:48:23.448Z,2.13
2023-04-24T11:50:58.657Z,1.23
2023-04-24T11:53:29.917Z,2.43
2023-04-24T11:55:59.551Z,3.43
2023-04-24T11:58:29.260Z,3.10
2023-04-24T12:01:03.399Z,2.10
2023-04-24T12:03:33.380Z,1.70
2023-04-24T12:06:12.883Z,1.53
2023-04-24T12:08:45.332Z,1.30
2023-04-24T12:11:28.177Z,1.70
2023-04-24T12:13:57.462Z,1.83
2023-04-24T12:16:28.427Z,1.87
2023-04-24T12:19:00.441Z,2.40
2023-04-24T12:21:40.666Z,1.70
2023-04-24T12:24:31.180Z,2.70
2023-04-24T12:27:12.852Z,1.57
2023-04-24T12:29:58.276Z,1.80
2023-04-24T12:32:30.350Z,1.90
2023-04-24T12:35:00.368Z,1.80
2023-04-24T12:37:46.577Z,1.90
2023-04-24T12:40:34.598Z,1.67
2023-04-24T12:43:18.977Z,2.17
2023-04-24T12:45:48.910Z,2.20
2023-04-24T12:48:18.521Z,2.30
2023-04-24T12:50:53.640Z,2.70
2023-04-24T12:53:23.194Z,1.90
2023-04-24T12:55:55.559Z,1.57
2023-04-24T12:58:27.535Z,1.17
2023-04-24T13:00:57.425Z,2.30
2023-04-24T13:03:27.782Z,3.20
2023-04-24T13:06:00.054Z,1.40
2023-04-24T13:08:32.326Z,2.03
2023-04-24T13:11:04.675Z,1.07
2023-04-24T13:13:35.070Z,1.73
2023-04-24T13:16:06.561Z,1.60
2023-04-24T13:18:35.709Z,2.10
2023-04-24T13:21:07.131Z,1.47
2023-04-24T13:23:44.877Z,1.10
2023-04-24T13:26:18.947Z,1.47
2023-04-24T13:28:53.938Z,1.20
2023-04-24T13:31:23.852Z,1.33
2023-04-24T13:33:53.260Z,1.77
2023-04-24T13:36:25.536Z,2.13
2023-04-24T13:38:58.234Z,2.50
2023-04-24T13:41:45.592Z,2.10
2023-04-24T13:44:17.980Z,1.27
2023-04-24T13:46:49.079Z,0.77
2023-04-24T13:52:15.720Z,1.10
2023-04-24T13:55:04.915Z,0.70
2023-04-24T13:57:36.118Z,2.00
2023-04-24T14:00:05.720Z,1.17
2023-04-24T14:02:35.671Z,6.13
2023-04-24T14:05:04.926Z,1.33
2023-04-24T14:07:34.849Z,1.43
2023-04-24T14:10:04.232Z,1.47
2023-04-24T14:12:49.613Z,1.40
2023-04-24T14:15:20.590Z,1.57
2023-04-24T14:21:01.134Z,1.60
2023-04-24T14:23:30.247Z,1.13
2023-04-24T14:26:00.218Z,1.60
2023-04-24T14:28:29.925Z,2.00
2023-04-24T14:31:04.214Z,1.30
2023-04-24T14:33:35.808Z,1.30
2023-04-24T14:36:24.340Z,1.77
2023-04-24T14:38:57.102Z,1.43
2023-04-24T14:41:32.206Z,1.10
2023-04-24T14:44:01.474Z,1.20
2023-04-24T14:46:35.441Z,1.40
2023-04-24T14:49:14.399Z,1.77
2023-04-24T14:51:56.098Z,1.27
2023-04-24T14:54:26.680Z,1.53
2023-04-24T14:57:05.888Z,3.33
2023-04-24T14:59:35.343Z,1.50
2023-04-24T15:02:15.967Z,1.13
2023-04-24T15:04:47.329Z,1.30
2023-04-24T15:07:17.302Z,1.70
2023-04-24T15:09:48.377Z,2.00
2023-04-24T15:12:18.317Z,1.90
2023-04-24T15:14:47.877Z,1.80
2023-04-24T15:17:19.119Z,1.53
2023-04-24T15:19:51.674Z,2.60
2023-04-24T15:22:23.687Z,1.20
2023-04-24T15:24:52.887Z,1.63
2023-04-24T15:27:23.065Z,1.53
2023-04-24T15:29:54.760Z,1.33
2023-04-24T15:32:26.839Z,0.80
2023-04-24T15:35:07.033Z,2.00
2023-04-24T15:37:41.895Z,1.43
2023-04-24T15:40:24.733Z,1.53
2023-04-24T15:42:55.619Z,0.80
2023-04-24T15:45:30.210Z,1.10
2023-04-24T15:48:02.126Z,2.50
2023-04-24T15:50:31.548Z,2.23
2023-04-24T15:53:02.584Z,1.33
2023-04-24T15:55:31.564Z,1.40
2023-04-24T15:58:00.714Z,1.50
2023-04-24T16:00:34.795Z,1.00
2023-04-24T16:03:07.058Z,1.40
2023-04-24T16:05:39.190Z,1.20
2023-04-24T16:08:10.301Z,1.07
2023-04-24T16:10:40.495Z,1.00
2023-04-24T16:13:14.020Z,1.23
2023-04-24T16:15:44.127Z,1.40
2023-04-24T16:18:17.873Z,1.33
2023-04-24T16:20:48.229Z,1.30
2023-04-24T16:23:18.985Z,2.40
2023-04-24T16:25:48.603Z,2.13
2023-04-24T16:28:18.128Z,4.07
2023-04-24T16:30:48.297Z,2.90
2023-04-24T16:33:20.911Z,1.83
2023-04-24T16:35:49.884Z,1.07
2023-04-24T16:38:19.510Z,1.10
2023-04-24T16:40:48.519Z,1.27
2023-04-24T16:43:18.150Z,1.23
2023-04-24T16:45:48.304Z,1.97
2023-04-24T16:48:21.561Z,1.40
2023-04-24T16:50:52.781Z,2.63
2023-04-24T16:53:23.204Z,1.53
2023-04-24T16:55:52.497Z,2.23
2023-04-24T16:58:21.813Z,0.97
2023-04-24T17:00:51.829Z,1.20
2023-04-24T17:03:23.201Z,2.10
2023-04-24T17:05:53.846Z,1.50
2023-04-24T17:08:24.104Z,1.37
2023-04-24T17:11:06.815Z,1.67
2023-04-24T17:13:36.045Z,2.07
2023-04-24T17:16:11.594Z,1.23
2023-04-24T17:19:22.130Z,1.90
2023-04-24T17:21:52.228Z,2.03
2023-04-24T17:24:21.789Z,1.77
2023-04-24T17:26:51.998Z,1.93
2023-04-24T17:29:21.999Z,1.50
2023-04-24T17:32:01.479Z,1.10
2023-04-24T17:34:32.200Z,3.50
2023-04-24T17:37:02.761Z,2.23
2023-04-24T17:39:33.628Z,1.10
2023-04-24T17:42:04.875Z,1.87
2023-04-24T17:44:35.350Z,1.87
2023-04-24T17:49:56.129Z,0.87
2023-04-24T17:52:37.297Z,1.70
2023-04-24T17:55:09.576Z,2.03
2023-04-24T17:57:50.590Z,3.83
2023-04-24T18:00:24.385Z,2.30
2023-04-24T18:03:01.613Z,2.50
2023-04-24T18:05:35.225Z,1.30
2023-04-24T18:10:51.470Z,1.33
2023-04-24T18:13:35.839Z,1.63
2023-04-24T18:16:25.142Z,1.13
2023-04-24T18:18:59.232Z,2.80
2023-04-24T18:22:00.967Z,2.80
2023-04-24T18:24:33.891Z,2.33
2023-04-24T18:27:17.790Z,2.40
2023-04-24T18:30:01.919Z,2.83
2023-04-24T18:32:42.989Z,1.57
2023-04-24T18:44:13.836Z,1.80
2023-04-24T18:49:39.720Z,1.93
2023-04-24T18:55:19.795Z,2.17
2023-04-24T18:57:49.628Z,1.70
2023-04-24T19:03:11.946Z,1.80
2023-04-24T19:08:44.243Z,2.20
2023-04-24T19:11:34.130Z,3.23
2023-04-24T19:16:55.837Z,2.00
2023-04-24T19:19:27.153Z,2.17
2023-04-24T19:21:58.093Z,1.93
2023-04-24T20:00:22.890Z,2.63
2023-04-24T20:03:25.590Z,2.40
2023-04-24T20:06:21.417Z,1.50
2023-04-24T20:11:55.789Z,1.93
2023-04-24T20:14:34.318Z,2.40
2023-04-24T20:20:01.170Z,2.07
2023-04-24T20:25:29.740Z,2.50
2023-04-24T20:28:01.795Z,1.00
2023-04-24T20:30:31.799Z,1.70
2023-04-24T20:33:01.542Z,2.27
2023-04-24T20:35:43.755Z,1.43
2023-04-24T20:38:12.634Z,2.90
2023-04-24T20:40:56.260Z,2.07
2023-04-24T20:43:29.051Z,3.90
2023-04-24T20:45:59.506Z,4.80
2023-04-24T20:48:28.916Z,2.20
2023-04-24T20:50:57.855Z,2.63
2023-04-24T20:53:27.137Z,3.13
2023-04-24T20:55:58.820Z,5.97
2023-04-24T20:58:27.787Z,3.53
2023-04-24T21:00:56.571Z,3.10
2023-04-24T21:03:28.792Z,2.37
2023-04-24T21:05:57.863Z,3.20
2023-04-24T21:08:27.446Z,3.00
2023-04-24T21:10:57.973Z,3.50
2023-04-24T21:13:28.596Z,2.90
2023-04-24T21:15:57.855Z,3.20
2023-04-24T21:18:27.702Z,6.13
2023-04-24T21:20:59.118Z,2.90
2023-04-24T21:23:30.984Z,2.80
2023-04-24T21:26:02.303Z,3.43
2023-04-24T21:28:32.780Z,4.60
2023-04-24T21:31:01.723Z,2.97
2023-04-24T21:33:31.660Z,3.70
2023-04-24T21:36:01.865Z,3.87
2023-04-24T21:38:33.170Z,2.00
2023-04-24T21:41:04.416Z,2.30
2023-04-24T21:43:49.810Z,3.23
2023-04-24T21:46:20.402Z,2.77
2023-04-24T21:48:50.185Z,3.13
2023-04-24T21:51:20.741Z,2.40
2023-04-24T21:53:50.211Z,2.43
2023-04-24T21:56:22.053Z,6.23
2023-04-24T21:58:51.787Z,3.87
2023-04-24T22:01:21.575Z,3.77
2023-04-24T22:03:51.215Z,4.20
2023-04-24T22:06:20.435Z,2.30
2023-04-24T22:08:50.030Z,2.30
2023-04-24T22:11:26.925Z,2.23
2023-04-24T22:13:56.475Z,3.40
2023-04-24T22:16:25.796Z,2.73
2023-04-24T22:18:55.704Z,1.23
2023-04-24T22:21:25.324Z,3.43
2023-04-24T22:23:55.473Z,2.60
2023-04-24T22:26:27.204Z,2.37
2023-04-24T22:28:57.550Z,2.20
2023-04-24T22:31:26.592Z,3.50
2023-04-24T22:33:55.774Z,3.13
2023-04-24T22:36:24.762Z,3.20
2023-04-24T22:38:53.661Z,3.07
2023-04-24T22:41:26.038Z,2.23
2023-04-24T22:43:58.199Z,2.77
2023-04-24T22:46:27.133Z,2.63
2023-04-24T22:48:58.763Z,2.30
2023-04-24T22:51:28.335Z,3.50
2023-04-24T22:53:59.441Z,2.60
2023-04-24T22:56:28.578Z,1.87
2023-04-24T22:58:59.725Z,2.60
2023-04-24T23:01:29.083Z,1.90
2023-04-24T23:03:58.542Z,3.00
2023-04-24T23:06:28.223Z,2.67
2023-04-24T23:08:57.072Z,2.47
2023-04-24T23:11:26.154Z,3.40
2023-04-24T23:13:55.425Z,3.63
2023-04-24T23:16:28.015Z,2.67
2023-04-24T23:18:57.522Z,2.97
2023-04-24T23:21:27.104Z,2.10
2023-04-24T23:23:56.595Z,3.17
2023-04-24T23:26:26.084Z,1.50
2023-04-24T23:28:56.280Z,4.53
2023-04-24T23:31:28.357Z,2.50
2023-04-24T23:34:00.144Z,2.77
2023-04-24T23:36:29.958Z,1.73
2023-04-24T23:38:59.349Z,2.43
2023-04-24T23:41:28.287Z,1.70
2023-04-24T23:43:57.058Z,3.50
2023-04-24T23:46:27.512Z,2.80
2023-04-24T23:48:57.133Z,2.10
2023-04-24T23:51:26.211Z,2.37
2023-04-24T23:53:55.224Z,2.67
2023-04-24T23:56:26.849Z,2.70
2023-04-24T23:58:57.128Z,2.47
